Pagrindinis puslapis
METAR-TAF:

METAR-TAF

Oro uostai :

Murmanskas, Rusija

platuma: 68-58N, ilguma: 033-03E, Aukštis: 51 m

Dabartinis oras

Ataskaita buvo paskelbta 36 minutes, ne 08:30 UTC
Vėjas 4 kt iš Rytų/Šiaurės Rytų
Temperatūra -3°C
Drėgmė 93%
Slėgis 1004 hPa
Matomumas 10 km arba daugiau
nėra debesų žemiau 1500 m ir nėra kamuolinių lietaus debesų

METAR: ULMM 270830Z 06002MPS CAVOK M03/M04 Q1004 R13/690050 NOSIG RMK QFE746

Laikas: 12:06 (09:06 UTC)

Prognozė

Ataskaita buvo paskelbta 1 valandą ir 16 minutes, ne 07:50 UTC
Prognozė galioja nuo 27 metu 09 UTC su 28 metu 09 UTC
Vėjas 6 kt iš Šiaurės Rytų su gūsio iki 16 kt
Matomumas 10 km arba daugiau
Išsisklaidę debesys ne aukštis 1600 ft
Tapsmas
nuo 27 metu 19 UTC su 27 metu 20 UTC
Vėjas 6 kt iš Rytų/Pietryčių
Matomumas: 6000 m
Laikinai
nuo 27 metu 20 UTC su 28 metu 06 UTC
Matomumas: 0300 m
ne aukštis 100 ft
įšaldymas rūko

TAF: ULMM 270750Z 2709/2809 04003G08MPS 9999 SCT016 BECMG 2719/2720 11003MPS 6000 TEMPO 2720/2806 0300 FZFG VV001

Orai ataskaitas ir orų prognozės (METAR, TAF).

turimą stotys yra geltonos ir raudonos taškus žemėlapyje.

Perkelti pele per norėdami pamatyti stoties vardą.

Tada spustelėkite, norėdami matyti oro stebėjimo ir prognozės.

Norėdami pakeisti žemėlapį: spustelėkite ant žalios mygtukų su juodo kryžiaus žemyn,; žalią mygtuką su brūkšneliu, jei norite nutolinti; arba žalių rodyklių gretimoms žemėlapius.


METAR-TAF: